Time;durP1;ratioP1;P1;durP2;ratioP2;P2;SDS_P1;SDS_P2;PMS_P1;PMS_P2;Temp;Humidity;BMP_temperature;BMP_pressure;BME280_temperature;BME280_humidity;BME280_pressure;Samples;Min_cycle;Max_cycle;Signal;HPM_P1;HPM_P2
2022/02/12 00:02:21;;;;;;;9.30;2.63;;;;;;;;;;4981885;28;20030;-70
2022/02/12 00:04:47;;;;;;;8.68;2.97;;;;;;;;;;4994844;28;20041;-70
2022/02/12 00:07:13;;;;;;;7.28;2.42;;;;;;;;;;4989340;28;20089;-70
2022/02/12 00:09:39;;;;;;;5.72;3.10;;;;;;;;;;4992710;28;20101;-70
2022/02/12 00:12:06;;;;;;;10.95;3.20;;;;;;;;;;4989105;28;20034;-71
2022/02/12 00:14:32;;;;;;;6.78;2.60;;;;;;;;;;4990135;28;20588;-71
2022/02/12 00:16:58;;;;;;;8.55;2.30;;;;;;;;;;4997180;28;21567;-71
2022/02/12 00:19:24;;;;;;;6.43;1.98;;;;;;;;;;4987084;28;20022;-70
2022/02/12 00:21:50;;;;;;;7.72;3.67;;;;;;;;;;4994165;28;20042;-71
2022/02/12 00:24:16;;;;;;;6.28;3.55;;;;;;;;;;4986272;28;20366;-70
2022/02/12 00:26:42;;;;;;;10.00;2.45;;;;;;;;;;4981762;28;20027;-70
2022/02/12 00:29:08;;;;;;;7.82;2.60;;;;;;;;;;4986090;28;20033;-70
2022/02/12 00:31:34;;;;;;;7.78;3.03;;;;;;;;;;4983162;28;20060;-70
2022/02/12 00:34:00;;;;;;;6.32;2.50;;;;;;;;;;4988560;28;20023;-70
2022/02/12 00:36:26;;;;;;;7.47;2.47;;;;;;;;;;4994798;28;20524;-70
2022/02/12 00:38:52;;;;;;;4.53;2.30;;;;;;;;;;4983291;28;20397;-70
2022/02/12 00:41:19;;;;;;;3.92;2.35;;;;;;;;;;4982376;28;20090;-70
2022/02/12 00:43:45;;;;;;;6.43;2.30;;;;;;;;;;4988215;28;20027;-70
2022/02/12 00:46:11;;;;;;;11.68;2.58;;;;;;;;;;4991837;28;20526;-69
2022/02/12 00:48:37;;;;;;;10.88;3.20;;;;;;;;;;4987931;28;20034;-69
2022/02/12 00:51:03;;;;;;;7.57;3.45;;;;;;;;;;4987411;28;20038;-69
2022/02/12 00:53:29;;;;;;;9.35;2.70;;;;;;;;;;4991844;28;20065;-69
2022/02/12 00:55:56;;;;;;;7.40;2.60;;;;;;;;;;4985275;28;20041;-69
2022/02/12 00:58:22;;;;;;;6.60;2.50;;;;;;;;;;4991043;28;20067;-69
2022/02/12 01:00:48;;;;;;;6.68;2.58;;;;;;;;;;4985866;28;20041;-70
2022/02/12 01:03:14;;;;;;;8.23;2.40;;;;;;;;;;5007507;28;20029;-69
2022/02/12 01:05:41;;;;;;;7.13;2.40;;;;;;;;;;4993076;28;20026;-69
2022/02/12 01:08:07;;;;;;;7.75;2.55;;;;;;;;;;4986174;28;20121;-69
2022/02/12 01:10:34;;;;;;;7.13;2.60;;;;;;;;;;4986305;28;20029;-69
2022/02/12 01:13:00;;;;;;;11.23;2.42;;;;;;;;;;4990672;28;20023;-69
2022/02/12 01:15:26;;;;;;;11.43;4.18;;;;;;;;;;4988678;28;20666;-69
2022/02/12 01:17:53;;;;;;;8.75;2.53;;;;;;;;;;4984183;28;20113;-69
2022/02/12 01:20:19;;;;;;;10.85;2.53;;;;;;;;;;4981634;28;20034;-70
2022/02/12 01:22:48;;;;;;;7.15;2.00;;;;;;;;;;4995894;28;20121;-70
2022/02/12 01:25:15;;;;;;;6.15;2.70;;;;;;;;;;4991300;28;20039;-70
2022/02/12 01:27:41;;;;;;;8.70;2.35;;;;;;;;;;4994127;28;20062;-70
2022/02/12 01:30:12;;;;;;;5.50;2.47;;;;;;;;;;4993967;28;20030;-70
2022/02/12 01:32:39;;;;;;;6.63;2.22;;;;;;;;;;4991232;28;20027;-70
2022/02/12 01:35:07;;;;;;;7.25;2.38;;;;;;;;;;5000714;28;20240;-70
2022/02/12 01:37:33;;;;;;;7.57;1.95;;;;;;;;;;4984688;28;20094;-70
2022/02/12 01:39:59;;;;;;;6.25;1.92;;;;;;;;;;4986468;28;20641;-71
2022/02/12 01:42:28;;;;;;;4.55;2.13;;;;;;;;;;4988228;28;20057;-71
2022/02/12 01:44:54;;;;;;;8.68;2.78;;;;;;;;;;4992268;28;20671;-70
2022/02/12 01:47:20;;;;;;;6.45;2.42;;;;;;;;;;4986120;28;20030;-70
2022/02/12 01:49:46;;;;;;;9.00;2.28;;;;;;;;;;4990612;28;20034;-71
2022/02/12 01:52:14;;;;;;;5.85;2.28;;;;;;;;;;5000409;28;20034;-70
2022/02/12 01:54:40;;;;;;;6.13;2.30;;;;;;;;;;4991628;28;20034;-70
2022/02/12 01:57:07;;;;;;;6.22;2.60;;;;;;;;;;4982947;28;20023;-70
2022/02/12 01:59:34;;;;;;;6.78;2.30;;;;;;;;;;4989083;28;20042;-70
2022/02/12 02:02:00;;;;;;;6.68;2.40;;;;;;;;;;5005498;28;20029;-70
2022/02/12 02:04:26;;;;;;;4.80;2.60;;;;;;;;;;4978967;28;20027;-70
2022/02/12 02:06:52;;;;;;;9.23;2.40;;;;;;;;;;4980548;28;20036;-70
2022/02/12 02:09:19;;;;;;;13.05;2.65;;;;;;;;;;4983831;28;20077;-71
2022/02/12 02:11:46;;;;;;;5.00;2.22;;;;;;;;;;4987150;28;20121;-70
2022/02/12 02:14:12;;;;;;;8.38;4.75;;;;;;;;;;4988886;28;20050;-70
2022/02/12 02:16:40;;;;;;;12.10;3.00;;;;;;;;;;4983480;28;20084;-71
2022/02/12 02:19:06;;;;;;;11.02;2.83;;;;;;;;;;4985906;28;20052;-70
2022/02/12 02:21:35;;;;;;;5.50;2.55;;;;;;;;;;4985517;28;20027;-70
2022/02/12 02:24:01;;;;;;;8.02;2.17;;;;;;;;;;4981932;28;20042;-70
2022/02/12 02:26:27;;;;;;;6.95;2.95;;;;;;;;;;4980655;28;20030;-71
2022/02/12 02:28:53;;;;;;;8.20;3.10;;;;;;;;;;4985947;28;20053;-70
2022/02/12 02:31:19;;;;;;;11.13;2.65;;;;;;;;;;4984711;28;20362;-70
2022/02/12 02:33:45;;;;;;;10.95;2.92;;;;;;;;;;4979338;28;20026;-70
2022/02/12 02:36:13;;;;;;;7.53;2.40;;;;;;;;;;4988882;28;20401;-70
2022/02/12 02:38:39;;;;;;;10.00;2.72;;;;;;;;;;4988633;28;20035;-71
2022/02/12 02:41:05;;;;;;;12.30;3.05;;;;;;;;;;4990930;28;20034;-70
2022/02/12 02:43:31;;;;;;;7.47;2.78;;;;;;;;;;4994557;28;20492;-70
2022/02/12 02:45:58;;;;;;;11.90;2.97;;;;;;;;;;4982720;28;20162;-66
2022/02/12 02:48:24;;;;;;;9.73;2.85;;;;;;;;;;4978826;28;20030;-70
2022/02/12 02:56:19;;;;;;;6.78;2.75;;;;;;;;;;4982933;28;20516;-70
2022/02/12 02:58:46;;;;;;;6.55;2.30;;;;;;;;;;4978304;28;20047;-70
2022/02/12 03:01:13;;;;;;;8.82;3.17;;;;;;;;;;4981761;28;20489;-70
2022/02/12 03:03:40;;;;;;;7.30;2.42;;;;;;;;;;4987112;28;20034;-70
2022/02/12 03:06:07;;;;;;;4.50;1.80;;;;;;;;;;4985456;28;20027;-70
2022/02/12 03:08:34;;;;;;;3.35;2.10;;;;;;;;;;4980935;28;20026;-70
2022/02/12 03:11:00;;;;;;;4.30;2.00;;;;;;;;;;4972475;28;20127;-70
2022/02/12 03:13:27;;;;;;;9.10;2.65;;;;;;;;;;4981569;28;20050;-70
2022/02/12 03:15:53;;;;;;;3.58;2.10;;;;;;;;;;4986810;28;20026;-70
2022/02/12 03:18:19;;;;;;;5.72;2.67;;;;;;;;;;4984180;28;20102;-70
2022/02/12 03:20:45;;;;;;;8.75;2.53;;;;;;;;;;4988947;28;20041;-70
2022/02/12 03:23:11;;;;;;;10.57;2.55;;;;;;;;;;4978835;28;20074;-70
2022/02/12 03:25:37;;;;;;;8.70;2.38;;;;;;;;;;4983930;28;20500;-70
2022/02/12 03:28:05;;;;;;;12.15;3.30;;;;;;;;;;4984722;28;20057;-70
2022/02/12 03:30:32;;;;;;;5.95;2.42;;;;;;;;;;4984391;28;20022;-71
2022/02/12 03:32:58;;;;;;;6.18;2.10;;;;;;;;;;4990960;28;20042;-69
2022/02/12 03:35:26;;;;;;;7.85;2.58;;;;;;;;;;4984499;28;20038;-70
2022/02/12 03:37:54;;;;;;;4.10;2.10;;;;;;;;;;4988114;28;20152;-69
2022/02/12 03:40:20;;;;;;;8.05;2.28;;;;;;;;;;5000023;28;20033;-68
2022/02/12 03:42:46;;;;;;;6.43;2.15;;;;;;;;;;5012858;28;20029;-70
2022/02/12 03:45:12;;;;;;;4.90;2.40;;;;;;;;;;4987221;28;20185;-69
2022/02/12 03:47:39;;;;;;;4.82;2.20;;;;;;;;;;4992347;28;20026;-69
2022/02/12 03:50:05;;;;;;;5.57;2.00;;;;;;;;;;4998429;28;20019;-68
2022/02/12 03:52:31;;;;;;;9.82;2.42;;;;;;;;;;4995318;28;20069;-69
2022/02/12 03:54:58;;;;;;;7.05;3.17;;;;;;;;;;5004749;28;20046;-70
2022/02/12 03:57:24;;;;;;;6.35;2.58;;;;;;;;;;4992356;28;20088;-69
2022/02/12 03:59:50;;;;;;;6.43;2.50;;;;;;;;;;4989722;28;20042;-70
2022/02/12 04:02:16;;;;;;;11.30;3.20;;;;;;;;;;5000227;28;20112;-70
2022/02/12 04:04:42;;;;;;;7.22;2.38;;;;;;;;;;4994149;28;20123;-69
2022/02/12 04:07:08;;;;;;;6.95;2.55;;;;;;;;;;4988178;28;20033;-70
2022/02/12 04:09:34;;;;;;;6.53;2.63;;;;;;;;;;4991843;28;20053;-69
2022/02/12 04:12:00;;;;;;;5.63;2.17;;;;;;;;;;4990061;28;20029;-70
2022/02/12 04:14:26;;;;;;;4.30;2.38;;;;;;;;;;4986070;28;20501;-70
2022/02/12 04:16:52;;;;;;;3.72;2.10;;;;;;;;;;4988312;28;20026;-70
2022/02/12 04:19:18;;;;;;;9.32;2.63;;;;;;;;;;4997833;28;20089;-70
2022/02/12 04:21:44;;;;;;;5.47;2.55;;;;;;;;;;4984682;28;20026;-69
2022/02/12 04:24:12;;;;;;;6.93;2.30;;;;;;;;;;4991150;28;20050;-69
2022/02/12 04:26:38;;;;;;;4.40;1.90;;;;;;;;;;4989653;28;20038;-70
2022/02/12 04:29:04;;;;;;;4.50;1.90;;;;;;;;;;4991588;28;20560;-69
2022/02/12 04:31:30;;;;;;;7.28;2.55;;;;;;;;;;4993933;28;20082;-70
2022/02/12 04:33:56;;;;;;;3.58;2.03;;;;;;;;;;4988670;28;20470;-69
2022/02/12 04:36:22;;;;;;;4.22;2.85;;;;;;;;;;4992613;28;20089;-70
2022/02/12 04:38:48;;;;;;;6.60;2.17;;;;;;;;;;4991449;28;20045;-70
2022/02/12 04:41:14;;;;;;;6.00;2.20;;;;;;;;;;4999324;28;20096;-70
2022/02/12 04:43:40;;;;;;;4.47;1.92;;;;;;;;;;4996987;28;20030;-70
2022/02/12 04:46:06;;;;;;;5.30;2.30;;;;;;;;;;4985430;28;20023;-70
2022/02/12 04:48:32;;;;;;;4.55;1.90;;;;;;;;;;4994538;28;20033;-70
2022/02/12 04:50:59;;;;;;;8.60;2.03;;;;;;;;;;4982228;28;20018;-70
2022/02/12 04:53:25;;;;;;;3.10;1.60;;;;;;;;;;4985672;28;20114;-70
2022/02/12 04:55:51;;;;;;;2.33;2.13;;;;;;;;;;4985219;28;20051;-69
2022/02/12 04:58:17;;;;;;;5.32;2.53;;;;;;;;;;4985741;28;20065;-71
2022/02/12 05:00:43;;;;;;;2.53;1.88;;;;;;;;;;4988300;28;20032;-70
2022/02/12 05:03:09;;;;;;;3.75;1.85;;;;;;;;;;4992789;28;20029;-69
2022/02/12 05:05:35;;;;;;;2.97;1.60;;;;;;;;;;4991759;28;20026;-70
2022/02/12 05:08:01;;;;;;;6.88;1.95;;;;;;;;;;4978535;28;20038;-69
2022/02/12 05:10:27;;;;;;;3.75;1.70;;;;;;;;;;4985735;28;20480;-69
2022/02/12 05:12:54;;;;;;;2.80;1.73;;;;;;;;;;5001020;28;20026;-70
2022/02/12 05:15:20;;;;;;;6.72;1.77;;;;;;;;;;4987208;28;20038;-69
2022/02/12 05:17:46;;;;;;;3.90;2.38;;;;;;;;;;4997582;28;20081;-70
2022/02/12 05:20:12;;;;;;;6.38;2.50;;;;;;;;;;4987913;28;20026;-69
2022/02/12 05:22:38;;;;;;;4.45;1.88;;;;;;;;;;4988079;28;20392;-70
2022/02/12 05:25:05;;;;;;;1.92;1.70;;;;;;;;;;4988991;28;20026;-70
2022/02/12 05:27:32;;;;;;;3.95;2.10;;;;;;;;;;4984397;28;20023;-70
2022/02/12 05:30:19;;;;;;;3.95;2.55;;;;;;;;;;4991059;28;20050;-69
2022/02/12 05:32:45;;;;;;;3.47;2.40;;;;;;;;;;4986731;28;20123;-69
2022/02/12 05:35:11;;;;;;;6.75;2.35;;;;;;;;;;4996169;28;20030;-70
2022/02/12 05:37:37;;;;;;;4.60;1.95;;;;;;;;;;4983172;28;20504;-69
2022/02/12 05:40:04;;;;;;;3.63;2.00;;;;;;;;;;4987814;28;20107;-69
2022/02/12 05:42:30;;;;;;;4.22;2.03;;;;;;;;;;5007221;28;20040;-70
2022/02/12 05:44:56;;;;;;;4.47;1.88;;;;;;;;;;4984079;28;20045;-70
2022/02/12 05:47:22;;;;;;;3.30;1.83;;;;;;;;;;4987066;28;20465;-70
2022/02/12 05:49:48;;;;;;;3.65;2.30;;;;;;;;;;4995188;28;20033;-71
2022/02/12 05:52:14;;;;;;;4.10;2.22;;;;;;;;;;4990474;28;20037;-68
2022/02/12 05:54:40;;;;;;;3.08;1.63;;;;;;;;;;4982887;28;20031;-69
2022/02/12 05:57:06;;;;;;;2.10;1.85;;;;;;;;;;4986394;28;20030;-71
2022/02/12 05:59:32;;;;;;;4.68;2.25;;;;;;;;;;4982769;28;20029;-70
2022/02/12 06:01:59;;;;;;;6.53;1.98;;;;;;;;;;4981401;28;20098;-70
2022/02/12 06:04:25;;;;;;;3.72;1.58;;;;;;;;;;4979980;28;20101;-70
2022/02/12 06:06:51;;;;;;;3.83;1.83;;;;;;;;;;4989798;28;20026;-70
2022/02/12 06:09:17;;;;;;;4.75;1.80;;;;;;;;;;4986416;28;20485;-70
2022/02/12 06:11:43;;;;;;;3.65;1.52;;;;;;;;;;4982248;28;20389;-70
2022/02/12 06:14:10;;;;;;;2.22;1.70;;;;;;;;;;4985935;28;20465;-70
2022/02/12 06:16:37;;;;;;;3.05;1.73;;;;;;;;;;4979027;28;20041;-71
2022/02/12 06:19:03;;;;;;;5.47;2.25;;;;;;;;;;4983595;28;20532;-70
2022/02/12 06:21:29;;;;;;;2.85;1.70;;;;;;;;;;4985968;28;20035;-70
2022/02/12 06:23:55;;;;;;;1.67;1.58;;;;;;;;;;4981958;28;20101;-68
2022/02/12 06:26:21;;;;;;;2.83;1.60;;;;;;;;;;4994223;28;20035;-69
2022/02/12 06:28:47;;;;;;;4.68;1.70;;;;;;;;;;4987337;28;20038;-70
2022/02/12 06:31:13;;;;;;;4.32;1.60;;;;;;;;;;4989386;28;20034;-70
2022/02/12 06:33:39;;;;;;;3.42;2.00;;;;;;;;;;4989598;28;20026;-70
2022/02/12 06:36:05;;;;;;;2.88;1.65;;;;;;;;;;4980477;28;20080;-67
2022/02/12 06:38:31;;;;;;;2.53;1.38;;;;;;;;;;4988179;28;20047;-70
2022/02/12 06:40:58;;;;;;;4.20;1.70;;;;;;;;;;4990056;28;20026;-70
2022/02/12 06:43:24;;;;;;;1.55;1.45;;;;;;;;;;4983196;28;20057;-70
2022/02/12 06:45:51;;;;;;;5.00;1.65;;;;;;;;;;4973199;28;20038;-70
2022/02/12 06:48:18;;;;;;;3.15;2.20;;;;;;;;;;4997138;28;20410;-70
2022/02/12 06:50:45;;;;;;;3.80;1.50;;;;;;;;;;4993778;28;20105;-69
2022/02/12 06:53:11;;;;;;;2.28;1.60;;;;;;;;;;4991199;28;20110;-70
2022/02/12 06:55:37;;;;;;;3.00;1.60;;;;;;;;;;4981167;28;20110;-70
2022/02/12 06:58:03;;;;;;;2.33;1.30;;;;;;;;;;4986888;28;20513;-70
2022/02/12 07:00:30;;;;;;;1.75;1.20;;;;;;;;;;4988081;28;20085;-71
2022/02/12 07:02:56;;;;;;;3.80;1.67;;;;;;;;;;4996932;28;20026;-70
2022/02/12 07:05:22;;;;;;;3.58;1.70;;;;;;;;;;4978481;28;20031;-69
2022/02/12 07:07:49;;;;;;;5.25;1.77;;;;;;;;;;4979720;28;20208;-69
2022/02/12 07:10:16;;;;;;;5.88;1.70;;;;;;;;;;4986751;28;20033;-71
2022/02/12 07:12:42;;;;;;;2.65;1.55;;;;;;;;;;4983097;28;20110;-70
2022/02/12 07:15:09;;;;;;;2.97;1.75;;;;;;;;;;4984733;28;20515;-69
2022/02/12 07:17:39;;;;;;;4.72;1.60;;;;;;;;;;4979753;28;20031;-70
2022/02/12 07:20:06;;;;;;;1.25;1.17;;;;;;;;;;4983364;28;20068;-70
2022/02/12 07:22:32;;;;;;;1.95;1.33;;;;;;;;;;4988696;28;20029;-70
2022/02/12 07:24:58;;;;;;;3.08;1.45;;;;;;;;;;4970378;28;20109;-70
2022/02/12 07:27:24;;;;;;;1.30;1.20;;;;;;;;;;4986397;28;20106;-70
2022/02/12 07:29:50;;;;;;;4.95;1.52;;;;;;;;;;4981538;28;20039;-71
2022/02/12 07:32:16;;;;;;;3.03;1.30;;;;;;;;;;4977327;28;20069;-70
2022/02/12 07:34:42;;;;;;;3.10;1.50;;;;;;;;;;4985684;28;20026;-70
2022/02/12 07:37:09;;;;;;;4.47;1.65;;;;;;;;;;4980461;28;20041;-70
2022/02/12 07:39:35;;;;;;;1.60;1.50;;;;;;;;;;4983133;28;20098;-70
2022/02/12 07:42:01;;;;;;;2.22;1.40;;;;;;;;;;4979202;28;20023;-70
2022/02/12 07:44:27;;;;;;;3.03;1.20;;;;;;;;;;4975667;28;20023;-70
2022/02/12 07:46:53;;;;;;;1.30;1.20;;;;;;;;;;4976523;28;20476;-70
2022/02/12 07:49:19;;;;;;;2.78;1.48;;;;;;;;;;4982958;28;20085;-70
2022/02/12 07:51:45;;;;;;;2.42;1.50;;;;;;;;;;4981356;28;20094;-68
2022/02/12 07:54:13;;;;;;;1.50;1.40;;;;;;;;;;4984457;28;20034;-70
2022/02/12 07:56:39;;;;;;;3.83;1.23;;;;;;;;;;4985925;28;20061;-71
2022/02/12 07:59:05;;;;;;;1.08;1.08;;;;;;;;;;4981610;28;20493;-70
2022/02/12 08:01:31;;;;;;;4.55;1.67;;;;;;;;;;4983010;28;20030;-71
2022/02/12 08:03:59;;;;;;;2.40;1.40;;;;;;;;;;4977698;28;20066;-70
2022/02/12 08:09:10;;;;;;;2.13;1.30;;;;;;;;;;4988382;28;20065;-72
2022/02/12 08:11:42;;;;;;;1.40;1.10;;;;;;;;;;4984857;28;20443;-72
2022/02/12 08:14:08;;;;;;;1.50;1.17;;;;;;;;;;4985418;28;20042;-70
2022/02/12 08:16:34;;;;;;;1.45;1.35;;;;;;;;;;4985281;28;20085;-70
2022/02/12 08:19:00;;;;;;;2.42;1.20;;;;;;;;;;4982044;28;20034;-70
2022/02/12 08:21:27;;;;;;;3.47;1.92;;;;;;;;;;4978581;28;20043;-70
2022/02/12 08:23:53;;;;;;;4.07;1.60;;;;;;;;;;4984821;28;20030;-70
2022/02/12 08:26:21;;;;;;;1.88;1.40;;;;;;;;;;5000681;28;20033;-71
2022/02/12 08:28:47;;;;;;;3.38;1.58;;;;;;;;;;4988076;28;20022;-70
2022/02/12 08:31:13;;;;;;;2.63;1.27;;;;;;;;;;4981410;28;20110;-70
2022/02/12 08:33:39;;;;;;;2.13;1.70;;;;;;;;;;4989968;28;20035;-70
2022/02/12 08:36:05;;;;;;;1.50;1.08;;;;;;;;;;4977848;28;20027;-69
2022/02/12 08:38:31;;;;;;;2.35;1.23;;;;;;;;;;4984814;28;20031;-70
2022/02/12 08:40:57;;;;;;;3.00;1.30;;;;;;;;;;5002645;28;20031;-70
2022/02/12 08:43:23;;;;;;;1.70;1.20;;;;;;;;;;4981281;28;20572;-70
2022/02/12 08:45:49;;;;;;;1.80;1.50;;;;;;;;;;4985949;28;20433;-70
2022/02/12 08:48:16;;;;;;;1.65;1.55;;;;;;;;;;4991244;28;20290;-70
2022/02/12 08:50:42;;;;;;;1.95;1.80;;;;;;;;;;4985337;28;20030;-70
2022/02/12 08:53:08;;;;;;;2.67;1.50;;;;;;;;;;4993276;28;20046;-70
2022/02/12 08:55:35;;;;;;;5.93;2.50;;;;;;;;;;4989191;28;20296;-71
2022/02/12 08:58:01;;;;;;;1.75;1.65;;;;;;;;;;4985143;28;20070;-70
2022/02/12 09:00:27;;;;;;;6.00;2.28;;;;;;;;;;4998390;28;20034;-69
2022/02/12 09:02:53;;;;;;;2.15;1.40;;;;;;;;;;4989553;28;20097;-70
2022/02/12 09:05:20;;;;;;;1.50;1.40;;;;;;;;;;4985334;28;20035;-70
2022/02/12 09:07:46;;;;;;;3.88;1.50;;;;;;;;;;4981827;28;20038;-69
2022/02/12 09:10:15;;;;;;;5.18;1.70;;;;;;;;;;4985978;28;20034;-68
2022/02/12 09:12:41;;;;;;;4.43;1.70;;;;;;;;;;4992187;28;20121;-70
2022/02/12 09:15:08;;;;;;;4.95;1.73;;;;;;;;;;5000685;28;20489;-69
2022/02/12 09:17:34;;;;;;;4.47;1.55;;;;;;;;;;4988020;28;20193;-70
2022/02/12 09:20:00;;;;;;;1.98;1.40;;;;;;;;;;4990577;28;20030;-70
2022/02/12 09:22:27;;;;;;;1.42;1.33;;;;;;;;;;4997482;28;20030;-72
2022/02/12 09:24:53;;;;;;;1.48;1.05;;;;;;;;;;4996772;28;20157;-69
2022/02/12 09:27:20;;;;;;;2.20;1.10;;;;;;;;;;4982347;28;20037;-70
2022/02/12 09:29:47;;;;;;;2.35;1.50;;;;;;;;;;4981070;28;20490;-69
2022/02/12 09:32:15;;;;;;;2.60;1.48;;;;;;;;;;4996220;28;20393;-69
2022/02/12 09:34:41;;;;;;;1.88;1.10;;;;;;;;;;4987174;28;20521;-70
2022/02/12 09:37:07;;;;;;;3.05;1.40;;;;;;;;;;4986526;28;20117;-69
2022/02/12 09:39:33;;;;;;;2.00;1.27;;;;;;;;;;4987038;28;20133;-69
2022/02/12 09:41:59;;;;;;;2.20;1.85;;;;;;;;;;4981902;28;20022;-70
2022/02/12 09:44:25;;;;;;;1.65;1.55;;;;;;;;;;4989150;28;20033;-69
2022/02/12 09:47:15;;;;;;;2.00;1.70;;;;;;;;;;4987442;28;20030;-69
2022/02/12 09:49:42;;;;;;;3.15;1.60;;;;;;;;;;4988396;28;20062;-70
2022/02/12 09:52:10;;;;;;;4.00;1.80;;;;;;;;;;4995027;28;20473;-69
2022/02/12 09:54:36;;;;;;;4.13;2.25;;;;;;;;;;4996227;28;20404;-69
2022/02/12 09:57:03;;;;;;;2.63;2.05;;;;;;;;;;4976215;28;20049;-69
2022/02/12 09:59:29;;;;;;;4.32;1.73;;;;;;;;;;4987689;28;20092;-70
2022/02/12 10:01:55;;;;;;;4.10;1.67;;;;;;;;;;4995335;28;20407;-71
2022/02/12 10:04:21;;;;;;;1.90;1.50;;;;;;;;;;4987072;28;20030;-72
2022/02/12 10:06:48;;;;;;;4.43;2.00;;;;;;;;;;4985699;28;20025;-70
2022/02/12 10:09:14;;;;;;;2.38;1.50;;;;;;;;;;4986787;28;20031;-70
2022/02/12 10:11:48;;;;;;;3.28;1.73;;;;;;;;;;4986543;28;20046;-73
2022/02/12 10:14:15;;;;;;;2.83;1.55;;;;;;;;;;4999859;28;20050;-73
2022/02/12 10:16:52;;;;;;;1.58;1.48;;;;;;;;;;4980977;28;20045;-71
2022/02/12 10:19:19;;;;;;;2.65;1.70;;;;;;;;;;4981875;28;20117;-71
2022/02/12 10:22:24;;;;;;;2.53;2.00;;;;;;;;;;4981762;28;20027;-73
2022/02/12 10:24:54;;;;;;;5.35;1.50;;;;;;;;;;4986593;28;20542;-73
2022/02/12 10:27:21;;;;;;;1.88;1.30;;;;;;;;;;4988927;28;20106;-73
2022/02/12 10:29:48;;;;;;;4.35;1.52;;;;;;;;;;4990632;28;20038;-74
2022/02/12 10:32:18;;;;;;;3.65;1.77;;;;;;;;;;5003327;28;20022;-73
2022/02/12 10:34:45;;;;;;;8.88;1.90;;;;;;;;;;4972860;28;20665;-73
2022/02/12 10:37:25;;;;;;;4.28;1.58;;;;;;;;;;4979437;28;20030;-73
2022/02/12 10:39:56;;;;;;;2.00;1.70;;;;;;;;;;4978966;28;20030;-71
2022/02/12 10:42:23;;;;;;;3.00;1.90;;;;;;;;;;4986079;28;20026;-73
2022/02/12 10:44:50;;;;;;;3.33;1.80;;;;;;;;;;4979484;28;20019;-74
2022/02/12 10:47:17;;;;;;;1.80;1.33;;;;;;;;;;4979020;28;20041;-73
2022/02/12 10:49:44;;;;;;;3.42;1.67;;;;;;;;;;4976150;28;20030;-74
2022/02/12 10:52:10;;;;;;;4.15;1.70;;;;;;;;;;4975851;28;20034;-71
2022/02/12 10:54:43;;;;;;;5.40;1.90;;;;;;;;;;4984408;28;20066;-73
2022/02/12 10:57:10;;;;;;;6.28;2.30;;;;;;;;;;4981424;28;20027;-73
2022/02/12 10:59:37;;;;;;;3.47;1.70;;;;;;;;;;4983794;28;20027;-73
2022/02/12 11:02:07;;;;;;;4.88;1.95;;;;;;;;;;4979318;28;20392;-73
2022/02/12 11:04:35;;;;;;;4.88;2.28;;;;;;;;;;4980448;28;20097;-73
2022/02/12 11:07:02;;;;;;;5.15;2.53;;;;;;;;;;4986873;28;20102;-73
2022/02/12 11:09:31;;;;;;;3.17;2.10;;;;;;;;;;4983105;28;20033;-73
2022/02/12 11:11:59;;;;;;;4.20;2.90;;;;;;;;;;4974568;28;20556;-72
2022/02/12 11:14:25;;;;;;;5.38;2.30;;;;;;;;;;4981359;28;20050;-74
2022/02/12 11:16:52;;;;;;;4.47;2.60;;;;;;;;;;4974220;28;20068;-71
2022/02/12 11:19:18;;;;;;;6.00;2.85;;;;;;;;;;4983089;28;20501;-73
2022/02/12 11:21:45;;;;;;;4.60;2.22;;;;;;;;;;4987871;28;20026;-73
2022/02/12 11:24:14;;;;;;;6.38;2.38;;;;;;;;;;4978867;28;20031;-73
2022/02/12 11:26:40;;;;;;;5.22;2.42;;;;;;;;;;4975125;28;20027;-73
2022/02/12 11:29:24;;;;;;;6.68;2.60;;;;;;;;;;4978945;28;20101;-71
2022/02/12 11:32:08;;;;;;;5.25;2.38;;;;;;;;;;4978672;28;20026;-73
2022/02/12 11:34:35;;;;;;;5.75;2.22;;;;;;;;;;4981258;28;20732;-73
2022/02/12 11:37:17;;;;;;;4.28;1.92;;;;;;;;;;4984387;28;20045;-73
2022/02/12 11:40:03;;;;;;;4.72;2.08;;;;;;;;;;4986718;28;20030;-73
2022/02/12 11:42:46;;;;;;;3.50;1.70;;;;;;;;;;4991393;28;20108;-73
2022/02/12 11:45:22;;;;;;;6.40;3.40;;;;;;;;;;4980122;28;20105;-73
2022/02/12 11:48:07;;;;;;;7.38;4.30;;;;;;;;;;4975106;28;20045;-74
2022/02/12 11:50:56;;;;;;;4.07;2.92;;;;;;;;;;4981473;28;20106;-73
2022/02/12 11:53:28;;;;;;;3.45;2.30;;;;;;;;;;4981385;28;20477;-73
2022/02/12 11:55:54;;;;;;;4.43;2.95;;;;;;;;;;4981743;28;20037;-72
2022/02/12 11:58:46;;;;;;;5.00;2.45;;;;;;;;;;4982294;28;20023;-73
2022/02/12 12:01:21;;;;;;;6.07;2.55;;;;;;;;;;4990019;28;20034;-73
2022/02/12 12:04:07;;;;;;;4.05;2.20;;;;;;;;;;4994624;28;20022;-73
2022/02/12 12:06:34;;;;;;;3.40;2.05;;;;;;;;;;4977732;28;20065;-73
2022/02/12 12:09:14;;;;;;;3.25;1.67;;;;;;;;;;4986101;28;20037;-73
2022/02/12 12:11:41;;;;;;;3.60;1.77;;;;;;;;;;4981965;28;20025;-72
2022/02/12 12:14:22;;;;;;;3.67;2.28;;;;;;;;;;4988464;28;20043;-73
2022/02/12 12:16:56;;;;;;;2.33;2.00;;;;;;;;;;4983782;28;20105;-73
2022/02/12 12:19:25;;;;;;;5.10;1.92;;;;;;;;;;4990590;28;20393;-72
2022/02/12 12:21:51;;;;;;;2.67;2.00;;;;;;;;;;4987458;28;20033;-73
2022/02/12 12:24:21;;;;;;;2.38;1.77;;;;;;;;;;4977657;28;20422;-72
2022/02/12 12:26:48;;;;;;;1.92;1.63;;;;;;;;;;4975110;28;20034;-73
2022/02/12 12:32:04;;;;;;;4.72;1.90;;;;;;;;;;4982075;28;20847;-72
2022/02/12 12:34:31;;;;;;;2.95;1.70;;;;;;;;;;4983819;28;20098;-73
2022/02/12 12:36:57;;;;;;;2.78;1.75;;;;;;;;;;4982649;28;20018;-73
2022/02/12 12:39:30;;;;;;;5.13;2.58;;;;;;;;;;4987776;28;20444;-73
2022/02/12 12:41:56;;;;;;;5.78;2.85;;;;;;;;;;4981676;28;20432;-73
2022/02/12 12:44:27;;;;;;;4.38;2.80;;;;;;;;;;4987262;28;20034;-73
2022/02/12 12:46:54;;;;;;;6.32;2.45;;;;;;;;;;4975994;28;20026;-72
2022/02/12 12:49:28;;;;;;;4.38;2.30;;;;;;;;;;4980170;28;20077;-73
2022/02/12 12:51:54;;;;;;;7.95;2.25;;;;;;;;;;4985569;28;20023;-73
2022/02/12 12:54:33;;;;;;;5.28;2.00;;;;;;;;;;4978682;28;20030;-73
2022/02/12 12:57:00;;;;;;;5.00;2.67;;;;;;;;;;4978315;28;20023;-73
2022/02/12 12:59:27;;;;;;;4.13;2.40;;;;;;;;;;4997048;28;20038;-73
2022/02/12 13:01:56;;;;;;;9.68;3.15;;;;;;;;;;4980860;28;20030;-73
2022/02/12 13:04:22;;;;;;;10.50;3.22;;;;;;;;;;4975430;28;20035;-73
2022/02/12 13:06:50;;;;;;;9.60;3.25;;;;;;;;;;4987445;28;20788;-73
2022/02/12 13:09:16;;;;;;;7.80;3.15;;;;;;;;;;4976722;28;20027;-73
2022/02/12 13:11:42;;;;;;;7.72;3.40;;;;;;;;;;4986558;28;20027;-73
2022/02/12 13:14:09;;;;;;;8.57;2.92;;;;;;;;;;4984460;28;20050;-73
2022/02/12 13:16:39;;;;;;;5.68;2.45;;;;;;;;;;4983637;28;20061;-73
2022/02/12 13:19:12;;;;;;;5.75;2.50;;;;;;;;;;4987126;28;20019;-73
2022/02/12 13:21:39;;;;;;;8.88;3.03;;;;;;;;;;5012963;28;20026;-73
2022/02/12 13:24:06;;;;;;;11.40;3.80;;;;;;;;;;4990698;28;20105;-73
2022/02/12 13:26:33;;;;;;;5.70;2.35;;;;;;;;;;4986276;28;20026;-73
2022/02/12 13:28:59;;;;;;;6.97;2.55;;;;;;;;;;4990535;28;20473;-74
2022/02/12 13:31:26;;;;;;;8.55;3.03;;;;;;;;;;4989763;28;20039;-71
2022/02/12 13:33:59;;;;;;;7.80;2.28;;;;;;;;;;4983474;28;20053;-74
2022/02/12 13:36:26;;;;;;;4.70;2.25;;;;;;;;;;4986641;28;20033;-72
2022/02/12 13:38:52;;;;;;;4.90;2.30;;;;;;;;;;5004935;28;20433;-73
2022/02/12 13:41:18;;;;;;;6.10;3.22;;;;;;;;;;4993557;28;20089;-73
2022/02/12 13:43:46;;;;;;;8.05;3.47;;;;;;;;;;4992248;28;20504;-72
2022/02/12 13:46:12;;;;;;;8.93;4.00;;;;;;;;;;4987257;28;20187;-73
2022/02/12 13:48:42;;;;;;;10.57;3.90;;;;;;;;;;4983147;28;20026;-75
2022/02/12 13:51:09;;;;;;;5.10;3.00;;;;;;;;;;4986205;28;20373;-73
2022/02/12 13:53:53;;;;;;;12.73;7.15;;;;;;;;;;4986250;28;20089;-71
2022/02/12 13:56:19;;;;;;;13.45;8.48;;;;;;;;;;4981247;28;20023;-71
2022/02/12 13:58:45;;;;;;;5.50;4.88;;;;;;;;;;4982925;28;20397;-71
2022/02/12 14:01:12;;;;;;;8.02;3.22;;;;;;;;;;4981771;28;20034;-72
2022/02/12 14:03:40;;;;;;;5.78;3.70;;;;;;;;;;4980498;28;20026;-72
2022/02/12 14:06:07;;;;;;;4.85;2.88;;;;;;;;;;4979006;28;20031;-73
2022/02/12 14:08:33;;;;;;;5.80;2.90;;;;;;;;;;4984151;28;20041;-73
2022/02/12 14:10:59;;;;;;;4.93;2.90;;;;;;;;;;4990360;28;20026;-72
2022/02/12 14:13:26;;;;;;;5.68;3.42;;;;;;;;;;4982270;28;20105;-73
2022/02/12 14:15:52;;;;;;;5.15;3.67;;;;;;;;;;4984468;28;20389;-73
2022/02/12 14:18:20;;;;;;;8.90;3.58;;;;;;;;;;4983623;28;20104;-74
2022/02/12 14:20:46;;;;;;;7.05;3.67;;;;;;;;;;4983828;28;20540;-73
2022/02/12 14:23:13;;;;;;;5.15;2.45;;;;;;;;;;4987447;28;20155;-73
2022/02/12 14:25:39;;;;;;;5.60;2.45;;;;;;;;;;4983833;28;20045;-73
2022/02/12 14:28:05;;;;;;;6.10;2.72;;;;;;;;;;4983101;28;20073;-72
2022/02/12 14:30:31;;;;;;;6.75;3.00;;;;;;;;;;4982745;28;20336;-73
2022/02/12 14:32:57;;;;;;;6.00;3.03;;;;;;;;;;4984193;28;20500;-72
2022/02/12 14:35:24;;;;;;;5.28;2.47;;;;;;;;;;4982645;28;20035;-71
2022/02/12 14:37:50;;;;;;;8.80;2.60;;;;;;;;;;4998984;28;20451;-72
2022/02/12 14:40:18;;;;;;;6.93;2.60;;;;;;;;;;4983955;28;20038;-73
2022/02/12 14:42:44;;;;;;;6.28;2.50;;;;;;;;;;4982752;28;20022;-72
2022/02/12 14:45:10;;;;;;;8.00;3.13;;;;;;;;;;4982134;28;20688;-72
2022/02/12 14:47:36;;;;;;;5.65;2.75;;;;;;;;;;4983231;28;20034;-71
2022/02/12 14:50:05;;;;;;;8.73;2.97;;;;;;;;;;4983347;28;20027;-72
2022/02/12 14:52:31;;;;;;;7.53;2.65;;;;;;;;;;4982209;28;20591;-72
2022/02/12 14:54:57;;;;;;;6.53;2.75;;;;;;;;;;4982350;28;20117;-72
2022/02/12 14:57:23;;;;;;;24.67;16.13;;;;;;;;;;4984487;28;20030;-71